createdAt,value
2018-04-10T00:00:24.266Z,90.40
2018-04-10T00:03:25.622Z,90.30
2018-04-10T00:06:27.729Z,90.90
2018-04-10T00:09:29.083Z,90.90
2018-04-10T00:12:30.461Z,90.80
2018-04-10T00:15:31.806Z,90.90
2018-04-10T00:18:33.149Z,91.00
2018-04-10T00:21:35.237Z,90.60
2018-04-10T00:24:37.307Z,90.80
2018-04-10T00:27:38.607Z,90.70
2018-04-10T00:30:39.951Z,90.80
2018-04-10T00:33:42.058Z,90.80
2018-04-10T00:36:43.400Z,90.70
2018-04-10T00:39:45.480Z,91.10
2018-04-10T00:42:47.570Z,91.10
2018-04-10T00:45:49.658Z,90.80
2018-04-10T00:48:51.027Z,90.80
2018-04-10T00:51:52.355Z,91.20
2018-04-10T00:54:53.711Z,90.80
2018-04-10T00:57:55.032Z,90.90
2018-04-10T01:00:56.362Z,91.00
2018-04-10T01:03:58.457Z,91.10
2018-04-10T01:07:00.530Z,91.00
2018-04-10T01:10:02.658Z,91.20
2018-04-10T01:13:04.025Z,91.20
2018-04-10T01:16:05.469Z,91.60
2018-04-10T01:19:06.823Z,91.60
2018-04-10T01:22:08.892Z,91.50
2018-04-10T01:25:10.979Z,91.70
2018-04-10T01:28:13.019Z,91.80
2018-04-10T01:31:14.355Z,91.70
2018-04-10T01:34:15.682Z,91.60
2018-04-10T01:37:17.904Z,91.60
2018-04-10T01:40:19.271Z,91.60
2018-04-10T01:43:20.663Z,91.70
2018-04-10T01:46:22.035Z,91.70
2018-04-10T01:49:24.130Z,91.80
2018-04-10T01:52:25.454Z,91.70
2018-04-10T01:55:26.795Z,92.00
2018-04-10T01:58:28.850Z,91.90
2018-04-10T02:01:30.182Z,91.90
2018-04-10T02:04:31.542Z,91.70
2018-04-10T02:07:32.894Z,91.60
2018-04-10T02:18:03.593Z,92.10
2018-04-10T02:21:05.829Z,92.20
2018-04-10T02:24:07.281Z,91.90
2018-04-10T02:27:08.744Z,91.70
2018-04-10T02:30:10.178Z,92.30
2018-04-10T02:33:12.530Z,92.20
2018-04-10T02:36:14.275Z,92.40
2018-04-10T02:39:15.775Z,92.70
2018-04-10T02:42:17.274Z,92.60
2018-04-10T02:45:18.811Z,92.50
2018-04-10T02:48:20.260Z,92.70
2018-04-10T02:51:21.729Z,92.60
2018-04-10T02:54:23.193Z,92.80
2018-04-10T02:57:24.700Z,92.70
2018-04-10T03:00:26.156Z,92.90
2018-04-10T03:03:27.638Z,92.60
2018-04-10T03:06:29.098Z,92.80
2018-04-10T03:09:30.538Z,92.90
2018-04-10T03:12:31.995Z,93.20
2018-04-10T03:15:33.424Z,93.20
2018-04-10T03:18:34.876Z,93.20
2018-04-10T03:21:36.353Z,93.20
2018-04-10T03:24:37.807Z,93.20
2018-04-10T03:27:39.274Z,93.30
2018-04-10T03:30:40.839Z,93.30
2018-04-10T03:33:43.020Z,93.40
2018-04-10T03:36:44.470Z,93.50
2018-04-10T03:39:45.878Z,93.30
2018-04-10T03:42:47.296Z,93.30
2018-04-10T03:45:48.731Z,93.40
2018-04-10T03:48:50.924Z,93.90
2018-04-10T03:51:53.150Z,93.80
2018-04-10T03:54:54.614Z,93.70
2018-04-10T03:57:56.052Z,93.70
2018-04-10T04:00:58.149Z,93.60
2018-04-10T04:03:59.495Z,93.50
2018-04-10T04:07:01.839Z,93.70
2018-04-10T04:10:03.460Z,93.60
2018-04-10T04:13:05.572Z,93.80
2018-04-10T04:16:06.965Z,93.80
2018-04-10T04:19:26.933Z,93.60
2018-04-10T04:22:37.303Z,93.80
2018-04-10T04:25:38.645Z,93.70
2018-04-10T04:28:40.707Z,93.80
2018-04-10T04:31:42.979Z,93.70
2018-04-10T04:34:44.311Z,93.90
2018-04-10T04:37:45.656Z,93.50
2018-04-10T04:40:47.001Z,93.60
2018-04-10T04:43:49.090Z,93.70
2018-04-10T04:46:51.219Z,93.80
2018-04-10T04:49:52.574Z,93.80
2018-04-10T04:52:53.923Z,93.80
2018-04-10T04:55:55.268Z,93.70
2018-04-10T04:58:57.341Z,94.10
2018-04-10T05:01:58.624Z,94.00
2018-04-10T05:05:00.833Z,93.70
2018-04-10T05:08:02.232Z,93.70
2018-04-10T05:11:04.337Z,93.80
2018-04-10T05:14:05.667Z,93.70
2018-04-10T05:17:07.092Z,93.60
2018-04-10T05:20:09.155Z,93.60
2018-04-10T05:23:10.454Z,93.60
2018-04-10T05:26:11.957Z,93.70
2018-04-10T05:29:13.282Z,94.00
2018-04-10T05:32:14.595Z,93.90
2018-04-10T05:35:17.062Z,94.00
2018-04-10T05:38:18.390Z,94.20
2018-04-10T05:41:20.468Z,94.20
2018-04-10T05:44:22.500Z,94.20
2018-04-10T05:47:38.771Z,94.20
2018-04-10T05:50:40.827Z,94.60
2018-04-10T05:53:42.197Z,94.50
2018-04-10T05:56:43.515Z,94.70
2018-04-10T05:59:44.828Z,94.60
2018-04-10T06:02:46.144Z,94.60
2018-04-10T06:05:47.502Z,94.60
2018-04-10T06:08:48.867Z,94.80
2018-04-10T06:11:50.266Z,94.90
2018-04-10T06:14:51.614Z,95.20
2018-04-10T06:17:52.985Z,95.30
2018-04-10T06:20:54.348Z,95.00
2018-04-10T06:23:55.683Z,95.00
2018-04-10T06:26:57.009Z,94.90
2018-04-10T06:29:58.356Z,94.40
2018-04-10T06:32:59.720Z,94.60
2018-04-10T06:36:01.106Z,94.20
2018-04-10T06:39:02.555Z,94.50
2018-04-10T06:42:03.939Z,93.90
2018-04-10T06:45:05.252Z,93.80
2018-04-10T06:48:06.610Z,94.10
2018-04-10T06:51:07.959Z,94.10
2018-04-10T06:54:10.066Z,94.60
2018-04-10T06:57:11.412Z,94.40
2018-04-10T07:00:13.541Z,94.20
2018-04-10T07:03:14.941Z,94.10
2018-04-10T07:06:17.063Z,93.60
2018-04-10T07:09:18.432Z,93.50
2018-04-10T07:12:19.773Z,93.70
2018-04-10T07:15:21.899Z,93.30
2018-04-10T07:18:23.292Z,93.20
2018-04-10T07:21:24.651Z,93.20
2018-04-10T07:24:25.964Z,93.10
2018-04-10T07:27:28.043Z,93.40
2018-04-10T07:30:29.352Z,93.30
2018-04-10T07:33:31.496Z,90.90
2018-04-10T07:36:32.808Z,90.90
2018-04-10T07:39:34.137Z,90.40
2018-04-10T07:42:35.519Z,90.80
2018-04-10T07:45:36.889Z,89.90
2018-04-10T07:48:38.287Z,87.80
2018-04-10T07:51:39.682Z,90.00
2018-04-10T07:54:41.771Z,90.20
2018-04-10T07:57:43.163Z,90.20
2018-04-10T08:00:44.521Z,90.60
2018-04-10T08:03:45.861Z,90.90
2018-04-10T08:06:47.944Z,90.90
2018-04-10T08:09:49.285Z,90.90
2018-04-10T08:12:50.646Z,90.80
2018-04-10T08:15:51.990Z,90.60
2018-04-10T08:18:54.081Z,90.20
2018-04-10T08:21:55.388Z,90.20
2018-04-10T08:24:57.519Z,90.10
2018-04-10T08:27:58.867Z,90.40
2018-04-10T08:31:00.251Z,88.60
2018-04-10T08:34:01.611Z,89.80
2018-04-10T08:37:02.935Z,88.90
2018-04-10T08:40:05.202Z,89.40
2018-04-10T08:43:07.426Z,88.70
2018-04-10T08:46:08.735Z,88.60
2018-04-10T08:49:10.090Z,89.80
2018-04-10T08:52:12.357Z,88.90
2018-04-10T08:55:13.714Z,88.00
2018-04-10T08:58:15.039Z,87.60
2018-04-10T09:01:17.110Z,87.80
2018-04-10T09:04:18.410Z,87.80
2018-04-10T09:07:19.746Z,86.80
2018-04-10T09:10:21.092Z,86.70
2018-04-10T09:13:22.458Z,86.70
2018-04-10T09:16:23.787Z,85.90
2018-04-10T09:19:25.130Z,86.50
2018-04-10T09:22:26.495Z,87.80
2018-04-10T09:25:27.839Z,86.20
2018-04-10T09:28:29.154Z,86.00
2018-04-10T09:31:30.508Z,85.20
2018-04-10T09:34:31.864Z,84.70
2018-04-10T09:37:33.196Z,84.30
2018-04-10T09:40:34.549Z,84.60
2018-04-10T09:43:35.951Z,84.60
2018-04-10T09:46:37.333Z,84.30
2018-04-10T09:49:38.689Z,85.20
2018-04-10T09:52:40.028Z,85.10
2018-04-10T09:55:42.111Z,82.90
2018-04-10T09:58:44.162Z,84.30
2018-04-10T10:01:45.603Z,84.70
2018-04-10T10:04:46.943Z,83.30
2018-04-10T10:07:48.266Z,83.50
2018-04-10T10:10:49.621Z,84.80
2018-04-10T10:13:50.940Z,85.20
2018-04-10T10:16:52.272Z,87.70
2018-04-10T10:19:53.653Z,86.30
2018-04-10T10:22:55.734Z,84.40
2018-04-10T10:25:57.092Z,84.40
2018-04-10T10:28:58.400Z,81.00
2018-04-10T10:31:59.727Z,83.70
2018-04-10T10:35:01.085Z,81.70
2018-04-10T10:38:02.443Z,82.50
2018-04-10T10:41:03.838Z,80.80
2018-04-10T10:44:05.908Z,78.20
2018-04-10T10:47:07.995Z,78.70
2018-04-10T10:50:10.084Z,81.40
2018-04-10T10:53:12.166Z,77.40
2018-04-10T10:56:14.189Z,81.50
2018-04-10T10:59:15.536Z,81.50
2018-04-10T11:02:16.861Z,82.90
2018-04-10T11:05:18.180Z,81.00
2018-04-10T11:08:19.505Z,78.60
2018-04-10T11:11:21.585Z,84.30
2018-04-10T11:14:23.667Z,81.20
2018-04-10T11:17:25.793Z,80.80
2018-04-10T11:20:27.173Z,80.70
2018-04-10T11:23:28.531Z,77.60
2018-04-10T11:26:29.895Z,74.70
2018-04-10T11:29:31.281Z,76.20
2018-04-10T11:32:32.623Z,79.00
2018-04-10T11:35:33.967Z,80.10
2018-04-10T11:38:35.317Z,79.40
2018-04-10T11:41:37.420Z,76.50
2018-04-10T11:44:38.768Z,76.30
2018-04-10T11:47:40.132Z,79.30
2018-04-10T11:50:42.206Z,77.00
2018-04-10T11:53:44.376Z,76.80
2018-04-10T11:56:45.699Z,75.00
2018-04-10T11:59:47.046Z,75.20
2018-04-10T12:02:48.379Z,71.60
2018-04-10T12:05:49.731Z,78.60
2018-04-10T12:08:51.043Z,78.90
2018-04-10T12:11:52.364Z,74.10
2018-04-10T12:14:53.713Z,74.90
2018-04-10T12:17:55.044Z,72.90
2018-04-10T12:20:56.402Z,78.60
2018-04-10T12:23:57.777Z,77.60
2018-04-10T12:26:59.117Z,75.90
2018-04-10T12:30:00.485Z,75.40
2018-04-10T12:33:01.811Z,76.40
2018-04-10T12:36:03.184Z,77.40
2018-04-10T12:39:05.518Z,77.10
2018-04-10T12:42:06.886Z,75.50
2018-04-10T12:45:08.267Z,76.10
2018-04-10T12:48:09.647Z,72.00
2018-04-10T12:51:11.045Z,73.10
2018-04-10T12:54:13.169Z,75.10
2018-04-10T12:57:14.508Z,74.90
2018-04-10T13:00:16.604Z,72.00
2018-04-10T13:03:17.970Z,71.80
2018-04-10T13:06:19.368Z,69.00
2018-04-10T13:09:20.695Z,70.10
2018-04-10T13:12:22.041Z,70.40
2018-04-10T13:15:23.402Z,67.50
2018-04-10T13:18:24.778Z,72.30
2018-04-10T13:21:26.858Z,73.20
2018-04-10T13:24:28.955Z,70.50
2018-04-10T13:27:31.017Z,69.80
2018-04-10T13:30:33.136Z,70.50
2018-04-10T13:33:34.494Z,70.50
2018-04-10T13:36:35.837Z,68.50
2018-04-10T13:39:37.914Z,72.30
2018-04-10T13:42:39.273Z,72.00
2018-04-10T13:45:40.626Z,71.30
2018-04-10T13:48:41.928Z,69.90
2018-04-10T13:51:44.026Z,71.90
2018-04-10T13:54:45.650Z,71.90
2018-04-10T13:57:46.993Z,70.20
2018-04-10T14:00:48.473Z,73.80
2018-04-10T14:03:49.850Z,71.80
2018-04-10T14:06:51.278Z,69.40
2018-04-10T14:09:52.693Z,71.00
2018-04-10T14:12:54.103Z,69.90
2018-04-10T14:15:55.423Z,73.30
2018-04-10T14:18:56.776Z,73.00
2018-04-10T14:21:58.149Z,71.70
2018-04-10T14:24:59.518Z,72.00
2018-04-10T14:28:00.853Z,71.00
2018-04-10T14:31:02.226Z,74.00
2018-04-10T14:34:03.580Z,73.70
2018-04-10T14:37:04.961Z,75.30
2018-04-10T14:40:06.407Z,75.00
2018-04-10T14:43:07.824Z,74.60
2018-04-10T14:46:09.150Z,76.00
2018-04-10T14:49:10.436Z,73.50
2018-04-10T14:52:11.854Z,72.30
2018-04-10T14:55:13.295Z,74.10
2018-04-10T14:58:15.366Z,76.80
2018-04-10T15:01:16.693Z,76.60
2018-04-10T15:04:18.027Z,75.10
2018-04-10T15:07:19.331Z,76.00
2018-04-10T15:10:20.658Z,76.20
2018-04-10T15:13:21.990Z,76.40
2018-04-10T15:16:24.048Z,75.70
2018-04-10T15:19:25.403Z,75.50
2018-04-10T15:22:26.811Z,75.90
2018-04-10T15:25:28.901Z,77.40
2018-04-10T15:28:30.970Z,79.30
2018-04-10T15:31:32.255Z,79.10
2018-04-10T15:34:34.362Z,78.00
2018-04-10T15:37:35.789Z,77.90
2018-04-10T15:40:37.860Z,78.40
2018-04-10T15:43:39.300Z,78.30
2018-04-10T15:46:40.690Z,78.20
2018-04-10T15:49:42.059Z,79.30
2018-04-10T15:52:43.431Z,76.70
2018-04-10T15:55:45.600Z,75.10
2018-04-10T15:58:46.990Z,74.90
2018-04-10T16:01:49.175Z,78.10
2018-04-10T16:04:51.374Z,76.70
2018-04-10T16:07:52.863Z,76.60
2018-04-10T16:10:54.269Z,77.10
2018-04-10T16:13:55.708Z,75.80
2018-04-10T16:16:57.203Z,75.40
2018-04-10T16:19:58.593Z,77.30
2018-04-10T16:23:00.730Z,77.20
2018-04-10T16:26:02.153Z,77.00
2018-04-10T16:29:04.308Z,77.70
2018-04-10T16:32:05.702Z,77.60
2018-04-10T16:35:07.073Z,77.90
2018-04-10T16:38:09.234Z,78.00
2018-04-10T16:41:10.614Z,78.00
2018-04-10T16:44:12.790Z,79.20
2018-04-10T16:47:14.943Z,78.50
2018-04-10T16:50:16.336Z,78.30
2018-04-10T16:53:18.429Z,78.60
2018-04-10T16:56:20.543Z,78.90
2018-04-10T16:59:21.943Z,79.50
2018-04-10T17:02:23.346Z,78.90
2018-04-10T17:05:25.535Z,79.20
2018-04-10T17:08:27.678Z,79.10
2018-04-10T17:11:29.062Z,79.10
2018-04-10T17:14:30.467Z,78.90
2018-04-10T17:17:31.840Z,78.90
2018-04-10T17:20:33.293Z,78.90
2018-04-10T17:23:35.429Z,79.10
2018-04-10T17:26:36.850Z,78.80
2018-04-10T17:29:38.261Z,80.20
2018-04-10T17:32:39.629Z,80.30
2018-04-10T17:35:41.019Z,84.60
2018-04-10T17:38:43.249Z,82.20
2018-04-10T17:41:44.659Z,81.70
2018-04-10T17:44:45.993Z,80.20
2018-04-10T17:47:47.382Z,79.70
2018-04-10T17:50:48.891Z,79.80
2018-04-10T17:53:50.254Z,79.80
2018-04-10T17:56:52.397Z,79.90
2018-04-10T17:59:53.787Z,79.80
2018-04-10T18:02:55.296Z,79.60
2018-04-10T18:05:56.863Z,79.50
2018-04-10T18:08:58.259Z,79.40
2018-04-10T18:11:59.585Z,79.80
2018-04-10T18:15:01.743Z,79.80
2018-04-10T18:18:03.099Z,79.50
2018-04-10T18:21:04.511Z,79.90
2018-04-10T18:24:05.871Z,79.60
2018-04-10T18:27:07.435Z,79.70
2018-04-10T18:30:09.733Z,81.30
2018-04-10T18:33:11.668Z,81.00
2018-04-10T18:36:13.377Z,81.10
2018-04-10T18:39:15.459Z,81.00
2018-04-10T18:42:17.565Z,82.00
2018-04-10T18:45:18.938Z,82.00
2018-04-10T18:48:21.938Z,83.30
2018-04-10T18:51:23.732Z,83.50
2018-04-10T18:54:26.292Z,84.80
2018-04-10T18:57:27.809Z,85.00
2018-04-10T19:00:30.964Z,86.40
2018-04-10T19:03:32.863Z,86.40
2018-04-10T19:06:34.450Z,86.50
2018-04-10T19:09:36.587Z,87.50
2018-04-10T19:12:39.106Z,86.60
2018-04-10T19:15:40.516Z,86.50
2018-04-10T19:18:42.431Z,85.20
2018-04-10T19:21:44.395Z,79.20
2018-04-10T19:24:47.839Z,75.80
2018-04-10T19:27:49.680Z,75.80
2018-04-10T19:30:51.789Z,79.30
2018-04-10T19:33:53.619Z,79.20
2018-04-10T19:36:55.896Z,82.50
2018-04-10T19:39:58.688Z,83.70
2018-04-10T19:43:00.437Z,83.70
2018-04-10T19:46:02.240Z,84.80
2018-04-10T19:49:03.841Z,86.20
2018-04-10T19:52:06.247Z,88.10
2018-04-10T19:55:08.840Z,88.40
2018-04-10T19:58:10.232Z,88.30
2018-04-10T20:01:12.273Z,88.00
2018-04-10T20:04:14.280Z,88.00
2018-04-10T20:07:16.685Z,87.30
2018-04-10T20:10:18.558Z,87.20
2018-04-10T20:13:20.169Z,89.00
2018-04-10T20:16:22.402Z,88.10
2018-04-10T20:19:23.749Z,87.50
2018-04-10T20:22:25.550Z,87.80
2018-04-10T20:25:26.868Z,88.40
2018-04-10T20:28:29.007Z,90.50
2018-04-10T20:31:31.485Z,90.40
2018-04-10T20:34:32.861Z,90.20
2018-04-10T20:37:34.723Z,90.80
2018-04-10T20:40:36.749Z,91.80
2018-04-10T20:43:38.603Z,91.70
2018-04-10T20:46:40.037Z,93.00
2018-04-10T20:49:41.354Z,94.20
2018-04-10T20:52:42.961Z,94.60
2018-04-10T20:55:44.311Z,94.60
2018-04-10T20:58:45.638Z,94.90
2018-04-10T21:01:47.217Z,94.10
2018-04-10T21:04:48.553Z,94.20
2018-04-10T21:07:51.159Z,95.20
2018-04-10T21:10:52.517Z,95.10
2018-04-10T21:13:54.675Z,95.50
2018-04-10T21:16:55.993Z,95.40
2018-04-10T21:19:57.435Z,95.80
2018-04-10T21:22:59.651Z,95.30
2018-04-10T21:26:00.969Z,95.30
2018-04-10T21:29:02.363Z,95.30
2018-04-10T21:32:03.777Z,95.70
2018-04-10T21:35:05.219Z,95.60
2018-04-10T21:38:07.684Z,95.70
2018-04-10T21:41:09.829Z,95.70
2018-04-10T21:44:12.871Z,95.40
2018-04-10T21:47:15.905Z,95.40
2018-04-10T21:50:18.509Z,95.40
2018-04-10T21:53:20.173Z,95.20
2018-04-10T21:56:22.030Z,94.80
2018-04-10T21:59:23.364Z,94.90
2018-04-10T22:02:24.914Z,95.10
2018-04-10T22:05:26.273Z,95.60
2018-04-10T22:08:27.598Z,95.40
2018-04-10T22:11:29.040Z,95.50
2018-04-10T22:14:31.090Z,95.60
2018-04-10T22:17:32.375Z,95.50
2018-04-10T22:20:34.424Z,96.30
2018-04-10T22:23:35.757Z,96.10
2018-04-10T22:26:37.073Z,96.00
2018-04-10T22:29:38.369Z,95.80
2018-04-10T22:32:40.373Z,96.20
2018-04-10T22:35:42.432Z,96.30
2018-04-10T22:38:43.753Z,96.30
2018-04-10T22:41:45.751Z,96.20
2018-04-10T22:44:47.053Z,96.20
2018-04-10T22:47:48.322Z,96.10
2018-04-10T22:50:50.115Z,95.60
2018-04-10T22:53:51.494Z,96.30
2018-04-10T22:56:53.189Z,96.20
2018-04-10T22:59:55.291Z,95.90
2018-04-10T23:03:03.598Z,95.90
2018-04-10T23:06:05.646Z,96.00
2018-04-10T23:09:07.217Z,96.00
2018-04-10T23:12:08.584Z,95.70
2018-04-10T23:15:09.881Z,96.10
2018-04-10T23:18:11.287Z,96.00
2018-04-10T23:21:12.621Z,96.20
2018-04-10T23:24:13.910Z,96.20
2018-04-10T23:27:15.963Z,96.00
2018-04-10T23:30:17.266Z,96.00
2018-04-10T23:33:18.656Z,96.20
2018-04-10T23:36:20.201Z,96.20
2018-04-10T23:39:21.687Z,96.20
2018-04-10T23:42:23.310Z,95.80
2018-04-10T23:45:24.867Z,96.20
2018-04-10T23:48:26.170Z,96.30
2018-04-10T23:51:28.210Z,96.40
2018-04-10T23:54:29.478Z,96.40
2018-04-10T23:57:30.746Z,96.30
